sensor_id;sensor_type;location;lat;lon;timestamp;temperature;humidity
19552;DHT22;9921;47.186;9.778;2022-10-31T00:00:14;11.60;99.90
19552;DHT22;9921;47.186;9.778;2022-10-31T00:02:44;11.60;99.90
19552;DHT22;9921;47.186;9.778;2022-10-31T00:05:10;11.60;99.90
19552;DHT22;9921;47.186;9.778;2022-10-31T00:07:37;11.60;99.90
19552;DHT22;9921;47.186;9.778;2022-10-31T00:10:05;11.60;99.90
19552;DHT22;9921;47.186;9.778;2022-10-31T00:12:32;11.60;99.90
19552;DHT22;9921;47.186;9.778;2022-10-31T00:14:59;11.60;99.90
19552;DHT22;9921;47.186;9.778;2022-10-31T00:17:27;11.60;99.90
19552;DHT22;9921;47.186;9.778;2022-10-31T00:19:54;11.60;99.90
19552;DHT22;9921;47.186;9.778;2022-10-31T00:22:22;11.40;99.90
19552;DHT22;9921;47.186;9.778;2022-10-31T00:24:49;11.30;99.90
19552;DHT22;9921;47.186;9.778;2022-10-31T00:27:15;11.40;99.90
19552;DHT22;9921;47.186;9.778;2022-10-31T00:29:42;11.50;99.90
19552;DHT22;9921;47.186;9.778;2022-10-31T00:32:09;11.30;99.90
19552;DHT22;9921;47.186;9.778;2022-10-31T00:34:37;11.20;99.90
19552;DHT22;9921;47.186;9.778;2022-10-31T00:37:04;11.10;99.90
19552;DHT22;9921;47.186;9.778;2022-10-31T00:39:31;11.10;99.90
19552;DHT22;9921;47.186;9.778;2022-10-31T00:41:57;11.10;99.90
19552;DHT22;9921;47.186;9.778;2022-10-31T00:44:24;10.90;99.90
19552;DHT22;9921;47.186;9.778;2022-10-31T00:46:51;10.90;99.90
19552;DHT22;9921;47.186;9.778;2022-10-31T00:49:18;10.90;99.90
19552;DHT22;9921;47.186;9.778;2022-10-31T00:51:46;11.00;99.90
19552;DHT22;9921;47.186;9.778;2022-10-31T00:54:13;11.00;99.90
19552;DHT22;9921;47.186;9.778;2022-10-31T00:56:40;11.10;99.90
19552;DHT22;9921;47.186;9.778;2022-10-31T00:59:07;11.20;99.90
19552;DHT22;9921;47.186;9.778;2022-10-31T01:01:34;11.30;99.90
19552;DHT22;9921;47.186;9.778;2022-10-31T01:04:00;11.00;99.90
19552;DHT22;9921;47.186;9.778;2022-10-31T01:06:27;10.90;99.90
19552;DHT22;9921;47.186;9.778;2022-10-31T01:08:55;10.90;99.90
19552;DHT22;9921;47.186;9.778;2022-10-31T01:11:23;11.00;99.90
19552;DHT22;9921;47.186;9.778;2022-10-31T01:13:51;11.10;99.90
19552;DHT22;9921;47.186;9.778;2022-10-31T01:16:19;11.20;99.90
19552;DHT22;9921;47.186;9.778;2022-10-31T01:18:47;11.30;99.90
19552;DHT22;9921;47.186;9.778;2022-10-31T01:21:16;11.20;99.90
19552;DHT22;9921;47.186;9.778;2022-10-31T01:23:43;11.20;99.90
19552;DHT22;9921;47.186;9.778;2022-10-31T01:26:13;11.20;99.90
19552;DHT22;9921;47.186;9.778;2022-10-31T01:28:45;11.10;99.90
19552;DHT22;9921;47.186;9.778;2022-10-31T01:31:12;11.10;99.90
19552;DHT22;9921;47.186;9.778;2022-10-31T01:33:39;10.70;99.90
19552;DHT22;9921;47.186;9.778;2022-10-31T01:36:18;10.70;99.90
19552;DHT22;9921;47.186;9.778;2022-10-31T01:38:45;10.60;99.90
19552;DHT22;9921;47.186;9.778;2022-10-31T01:41:15;10.80;99.90
19552;DHT22;9921;47.186;9.778;2022-10-31T01:43:48;10.80;99.90
19552;DHT22;9921;47.186;9.778;2022-10-31T01:46:17;10.60;99.90
19552;DHT22;9921;47.186;9.778;2022-10-31T01:48:46;10.70;99.90
19552;DHT22;9921;47.186;9.778;2022-10-31T01:51:16;10.50;99.90
19552;DHT22;9921;47.186;9.778;2022-10-31T01:53:44;10.50;99.90
19552;DHT22;9921;47.186;9.778;2022-10-31T01:56:14;10.30;99.90
19552;DHT22;9921;47.186;9.778;2022-10-31T01:58:42;10.30;99.90
19552;DHT22;9921;47.186;9.778;2022-10-31T02:01:13;10.40;99.90
19552;DHT22;9921;47.186;9.778;2022-10-31T02:03:40;10.40;99.90
19552;DHT22;9921;47.186;9.778;2022-10-31T02:06:16;10.40;99.90
19552;DHT22;9921;47.186;9.778;2022-10-31T02:08:46;10.50;99.90
19552;DHT22;9921;47.186;9.778;2022-10-31T02:11:14;10.40;99.90
19552;DHT22;9921;47.186;9.778;2022-10-31T02:13:42;10.40;99.90
19552;DHT22;9921;47.186;9.778;2022-10-31T02:16:09;10.30;99.90
19552;DHT22;9921;47.186;9.778;2022-10-31T02:18:37;10.40;99.90
19552;DHT22;9921;47.186;9.778;2022-10-31T02:21:11;10.30;99.90
19552;DHT22;9921;47.186;9.778;2022-10-31T02:24:08;10.30;99.90
19552;DHT22;9921;47.186;9.778;2022-10-31T02:27:01;10.40;99.90
19552;DHT22;9921;47.186;9.778;2022-10-31T02:29:55;10.30;99.90
19552;DHT22;9921;47.186;9.778;2022-10-31T02:32:34;10.30;99.90
19552;DHT22;9921;47.186;9.778;2022-10-31T02:35:09;10.20;99.90
19552;DHT22;9921;47.186;9.778;2022-10-31T02:37:44;10.10;99.90
19552;DHT22;9921;47.186;9.778;2022-10-31T02:40:19;10.30;99.90
19552;DHT22;9921;47.186;9.778;2022-10-31T02:42:53;10.30;99.90
19552;DHT22;9921;47.186;9.778;2022-10-31T02:45:27;10.30;99.90
19552;DHT22;9921;47.186;9.778;2022-10-31T02:48:01;10.30;99.90
19552;DHT22;9921;47.186;9.778;2022-10-31T02:50:32;10.20;99.90
19552;DHT22;9921;47.186;9.778;2022-10-31T02:53:02;10.20;99.90
19552;DHT22;9921;47.186;9.778;2022-10-31T02:55:59;10.40;99.90
19552;DHT22;9921;47.186;9.778;2022-10-31T02:58:31;10.30;99.90
19552;DHT22;9921;47.186;9.778;2022-10-31T03:01:14;10.40;99.90
19552;DHT22;9921;47.186;9.778;2022-10-31T03:03:58;10.30;99.90
19552;DHT22;9921;47.186;9.778;2022-10-31T03:06:30;10.20;99.90
19552;DHT22;9921;47.186;9.778;2022-10-31T03:09:05;10.00;99.90
19552;DHT22;9921;47.186;9.778;2022-10-31T03:11:43;9.90;99.90
19552;DHT22;9921;47.186;9.778;2022-10-31T03:14:16;9.90;99.90
19552;DHT22;9921;47.186;9.778;2022-10-31T03:16:46;10.00;99.90
19552;DHT22;9921;47.186;9.778;2022-10-31T03:19:17;10.10;99.90
19552;DHT22;9921;47.186;9.778;2022-10-31T03:21:48;10.20;99.90
19552;DHT22;9921;47.186;9.778;2022-10-31T03:24:19;10.00;99.90
19552;DHT22;9921;47.186;9.778;2022-10-31T03:26:50;10.00;99.90
19552;DHT22;9921;47.186;9.778;2022-10-31T03:29:21;10.00;99.90
19552;DHT22;9921;47.186;9.778;2022-10-31T03:31:53;10.00;99.90
19552;DHT22;9921;47.186;9.778;2022-10-31T03:34:23;10.00;99.90
19552;DHT22;9921;47.186;9.778;2022-10-31T03:36:52;10.00;99.90
19552;DHT22;9921;47.186;9.778;2022-10-31T03:39:21;9.80;99.90
19552;DHT22;9921;47.186;9.778;2022-10-31T03:41:54;9.80;99.90
19552;DHT22;9921;47.186;9.778;2022-10-31T03:44:22;9.80;99.90
19552;DHT22;9921;47.186;9.778;2022-10-31T03:46:50;9.80;99.90
19552;DHT22;9921;47.186;9.778;2022-10-31T03:49:17;9.80;99.90
19552;DHT22;9921;47.186;9.778;2022-10-31T03:51:49;9.90;99.90
19552;DHT22;9921;47.186;9.778;2022-10-31T03:54:23;9.90;99.90
19552;DHT22;9921;47.186;9.778;2022-10-31T03:56:54;10.00;99.90
19552;DHT22;9921;47.186;9.778;2022-10-31T03:59:26;10.00;99.90
19552;DHT22;9921;47.186;9.778;2022-10-31T04:01:59;9.90;99.90
19552;DHT22;9921;47.186;9.778;2022-10-31T04:04:27;9.90;99.90
19552;DHT22;9921;47.186;9.778;2022-10-31T04:06:58;9.80;99.90
19552;DHT22;9921;47.186;9.778;2022-10-31T04:09:27;9.80;99.90
19552;DHT22;9921;47.186;9.778;2022-10-31T04:11:58;9.70;99.90
19552;DHT22;9921;47.186;9.778;2022-10-31T04:14:30;9.70;99.90
19552;DHT22;9921;47.186;9.778;2022-10-31T04:16:57;9.70;99.90
19552;DHT22;9921;47.186;9.778;2022-10-31T04:19:24;9.80;99.90
19552;DHT22;9921;47.186;9.778;2022-10-31T04:21:51;9.90;99.90
19552;DHT22;9921;47.186;9.778;2022-10-31T04:24:19;9.90;99.90
19552;DHT22;9921;47.186;9.778;2022-10-31T04:26:46;9.80;99.90
19552;DHT22;9921;47.186;9.778;2022-10-31T04:29:13;9.80;99.90
19552;DHT22;9921;47.186;9.778;2022-10-31T04:31:40;9.80;99.90
19552;DHT22;9921;47.186;9.778;2022-10-31T04:34:07;9.70;99.90
19552;DHT22;9921;47.186;9.778;2022-10-31T04:36:34;9.70;99.90
19552;DHT22;9921;47.186;9.778;2022-10-31T04:39:00;9.60;99.90
19552;DHT22;9921;47.186;9.778;2022-10-31T04:41:29;9.60;99.90
19552;DHT22;9921;47.186;9.778;2022-10-31T04:43:55;9.50;99.90
19552;DHT22;9921;47.186;9.778;2022-10-31T04:46:22;9.60;99.90
19552;DHT22;9921;47.186;9.778;2022-10-31T04:48:49;9.60;99.90
19552;DHT22;9921;47.186;9.778;2022-10-31T04:51:16;9.60;99.90
19552;DHT22;9921;47.186;9.778;2022-10-31T04:53:43;9.60;99.90
19552;DHT22;9921;47.186;9.778;2022-10-31T04:56:09;9.40;99.90
19552;DHT22;9921;47.186;9.778;2022-10-31T04:58:38;9.50;99.90
19552;DHT22;9921;47.186;9.778;2022-10-31T05:01:05;9.50;99.90
19552;DHT22;9921;47.186;9.778;2022-10-31T05:03:31;9.70;99.90
19552;DHT22;9921;47.186;9.778;2022-10-31T05:05:58;9.60;99.90
19552;DHT22;9921;47.186;9.778;2022-10-31T05:08:25;9.60;99.90
19552;DHT22;9921;47.186;9.778;2022-10-31T05:10:52;9.40;99.90
19552;DHT22;9921;47.186;9.778;2022-10-31T05:13:19;9.40;99.90
19552;DHT22;9921;47.186;9.778;2022-10-31T05:15:47;9.50;99.90
19552;DHT22;9921;47.186;9.778;2022-10-31T05:18:13;9.50;99.90
19552;DHT22;9921;47.186;9.778;2022-10-31T05:20:40;9.40;99.90
19552;DHT22;9921;47.186;9.778;2022-10-31T05:23:07;9.50;99.90
19552;DHT22;9921;47.186;9.778;2022-10-31T05:25:34;9.50;99.90
19552;DHT22;9921;47.186;9.778;2022-10-31T05:28:01;9.40;99.90
19552;DHT22;9921;47.186;9.778;2022-10-31T05:30:30;9.60;99.90
19552;DHT22;9921;47.186;9.778;2022-10-31T05:32:59;9.50;99.90
19552;DHT22;9921;47.186;9.778;2022-10-31T05:35:28;9.50;99.90
19552;DHT22;9921;47.186;9.778;2022-10-31T05:37:55;9.50;99.90
19552;DHT22;9921;47.186;9.778;2022-10-31T05:40:23;9.50;99.90
19552;DHT22;9921;47.186;9.778;2022-10-31T05:42:52;9.40;99.90
19552;DHT22;9921;47.186;9.778;2022-10-31T05:45:20;9.50;99.90
19552;DHT22;9921;47.186;9.778;2022-10-31T05:47:51;9.50;99.90
19552;DHT22;9921;47.186;9.778;2022-10-31T05:50:19;9.60;99.90
19552;DHT22;9921;47.186;9.778;2022-10-31T05:52:46;9.40;99.90
19552;DHT22;9921;47.186;9.778;2022-10-31T05:55:13;9.30;99.90
19552;DHT22;9921;47.186;9.778;2022-10-31T05:57:40;9.10;99.90
19552;DHT22;9921;47.186;9.778;2022-10-31T06:00:08;9.10;99.90
19552;DHT22;9921;47.186;9.778;2022-10-31T06:02:35;9.10;99.90
19552;DHT22;9921;47.186;9.778;2022-10-31T06:05:02;9.30;99.90
19552;DHT22;9921;47.186;9.778;2022-10-31T06:07:34;9.30;99.90
19552;DHT22;9921;47.186;9.778;2022-10-31T06:10:02;9.30;99.90
19552;DHT22;9921;47.186;9.778;2022-10-31T06:12:29;9.40;99.90
19552;DHT22;9921;47.186;9.778;2022-10-31T06:14:56;9.10;99.90
19552;DHT22;9921;47.186;9.778;2022-10-31T06:17:23;9.20;99.90
19552;DHT22;9921;47.186;9.778;2022-10-31T06:19:50;9.30;99.90
19552;DHT22;9921;47.186;9.778;2022-10-31T06:22:16;9.20;99.90
19552;DHT22;9921;47.186;9.778;2022-10-31T06:24:44;9.30;99.90
19552;DHT22;9921;47.186;9.778;2022-10-31T06:27:11;9.30;99.90
19552;DHT22;9921;47.186;9.778;2022-10-31T06:29:38;9.50;99.90
19552;DHT22;9921;47.186;9.778;2022-10-31T06:32:05;9.80;99.90
19552;DHT22;9921;47.186;9.778;2022-10-31T06:34:32;9.80;99.90
19552;DHT22;9921;47.186;9.778;2022-10-31T06:36:59;9.50;99.90
19552;DHT22;9921;47.186;9.778;2022-10-31T06:39:25;9.60;99.90
19552;DHT22;9921;47.186;9.778;2022-10-31T06:41:54;9.60;99.90
19552;DHT22;9921;47.186;9.778;2022-10-31T06:44:20;9.40;99.90
19552;DHT22;9921;47.186;9.778;2022-10-31T06:46:47;9.60;99.90
19552;DHT22;9921;47.186;9.778;2022-10-31T06:49:14;9.60;99.90
19552;DHT22;9921;47.186;9.778;2022-10-31T06:51:41;9.70;99.90
19552;DHT22;9921;47.186;9.778;2022-10-31T06:54:08;9.60;99.90
19552;DHT22;9921;47.186;9.778;2022-10-31T06:56:34;9.60;99.90
19552;DHT22;9921;47.186;9.778;2022-10-31T06:59:03;9.50;99.90
19552;DHT22;9921;47.186;9.778;2022-10-31T07:01:29;9.50;99.90
19552;DHT22;9921;47.186;9.778;2022-10-31T07:03:56;9.50;99.90
19552;DHT22;9921;47.186;9.778;2022-10-31T07:06:23;9.50;99.90
19552;DHT22;9921;47.186;9.778;2022-10-31T07:08:50;9.60;99.90
19552;DHT22;9921;47.186;9.778;2022-10-31T07:11:17;9.70;99.90
19552;DHT22;9921;47.186;9.778;2022-10-31T07:13:44;9.60;99.90
19552;DHT22;9921;47.186;9.778;2022-10-31T07:16:12;9.70;99.90
19552;DHT22;9921;47.186;9.778;2022-10-31T07:18:39;9.80;99.90
19552;DHT22;9921;47.186;9.778;2022-10-31T07:21:06;9.80;99.90
19552;DHT22;9921;47.186;9.778;2022-10-31T07:23:33;10.00;99.90
19552;DHT22;9921;47.186;9.778;2022-10-31T07:25:59;10.00;99.90
19552;DHT22;9921;47.186;9.778;2022-10-31T07:28:27;10.20;99.90
19552;DHT22;9921;47.186;9.778;2022-10-31T07:30:55;10.40;99.90
19552;DHT22;9921;47.186;9.778;2022-10-31T07:33:24;10.50;99.90
19552;DHT22;9921;47.186;9.778;2022-10-31T07:35:52;10.60;99.90
19552;DHT22;9921;47.186;9.778;2022-10-31T07:38:19;10.70;99.90
19552;DHT22;9921;47.186;9.778;2022-10-31T07:40:50;10.80;99.90
19552;DHT22;9921;47.186;9.778;2022-10-31T07:43:18;10.90;99.90
19552;DHT22;9921;47.186;9.778;2022-10-31T07:45:49;11.10;99.90
19552;DHT22;9921;47.186;9.778;2022-10-31T07:48:17;11.30;99.90
19552;DHT22;9921;47.186;9.778;2022-10-31T07:50:45;11.40;99.90
19552;DHT22;9921;47.186;9.778;2022-10-31T07:53:13;11.60;99.90
19552;DHT22;9921;47.186;9.778;2022-10-31T07:55:41;11.70;99.90
19552;DHT22;9921;47.186;9.778;2022-10-31T07:58:09;11.90;99.90
19552;DHT22;9921;47.186;9.778;2022-10-31T08:00:37;12.10;99.90
19552;DHT22;9921;47.186;9.778;2022-10-31T08:03:06;12.20;99.90
19552;DHT22;9921;47.186;9.778;2022-10-31T08:05:34;12.30;99.90
19552;DHT22;9921;47.186;9.778;2022-10-31T08:08:02;12.40;99.90
19552;DHT22;9921;47.186;9.778;2022-10-31T08:10:30;12.60;99.90
19552;DHT22;9921;47.186;9.778;2022-10-31T08:12:58;12.80;99.90
19552;DHT22;9921;47.186;9.778;2022-10-31T08:15:25;12.90;99.90
19552;DHT22;9921;47.186;9.778;2022-10-31T08:17:52;13.10;99.90
19552;DHT22;9921;47.186;9.778;2022-10-31T08:20:19;13.20;99.90
19552;DHT22;9921;47.186;9.778;2022-10-31T08:22:56;13.40;99.90
19552;DHT22;9921;47.186;9.778;2022-10-31T08:25:26;13.40;99.90
19552;DHT22;9921;47.186;9.778;2022-10-31T08:27:54;13.30;99.90
19552;DHT22;9921;47.186;9.778;2022-10-31T08:30:25;13.40;99.90
19552;DHT22;9921;47.186;9.778;2022-10-31T08:33:02;13.60;99.90
19552;DHT22;9921;47.186;9.778;2022-10-31T08:35:29;13.70;99.90
19552;DHT22;9921;47.186;9.778;2022-10-31T08:37:56;13.90;99.90
19552;DHT22;9921;47.186;9.778;2022-10-31T08:40:26;14.10;99.90
19552;DHT22;9921;47.186;9.778;2022-10-31T08:42:57;14.40;99.90
19552;DHT22;9921;47.186;9.778;2022-10-31T08:45:24;14.60;99.90
19552;DHT22;9921;47.186;9.778;2022-10-31T08:47:51;14.80;99.90
19552;DHT22;9921;47.186;9.778;2022-10-31T08:50:18;14.90;99.90
19552;DHT22;9921;47.186;9.778;2022-10-31T08:52:45;15.10;99.90
19552;DHT22;9921;47.186;9.778;2022-10-31T08:55:12;15.30;99.90
19552;DHT22;9921;47.186;9.778;2022-10-31T08:57:40;15.40;99.90
19552;DHT22;9921;47.186;9.778;2022-10-31T09:00:08;15.50;99.90
19552;DHT22;9921;47.186;9.778;2022-10-31T09:02:35;15.70;99.90
19552;DHT22;9921;47.186;9.778;2022-10-31T09:05:04;15.80;99.90
19552;DHT22;9921;47.186;9.778;2022-10-31T09:07:31;15.80;99.90
19552;DHT22;9921;47.186;9.778;2022-10-31T09:09:58;16.00;99.90
19552;DHT22;9921;47.186;9.778;2022-10-31T09:12:24;16.10;99.90
19552;DHT22;9921;47.186;9.778;2022-10-31T09:14:53;16.30;99.90
19552;DHT22;9921;47.186;9.778;2022-10-31T09:17:19;16.50;99.90
19552;DHT22;9921;47.186;9.778;2022-10-31T09:19:46;16.80;99.90
19552;DHT22;9921;47.186;9.778;2022-10-31T09:22:14;17.00;99.90
19552;DHT22;9921;47.186;9.778;2022-10-31T09:24:40;17.10;99.90
19552;DHT22;9921;47.186;9.778;2022-10-31T09:27:07;17.10;99.90
19552;DHT22;9921;47.186;9.778;2022-10-31T09:29:34;17.20;99.90
19552;DHT22;9921;47.186;9.778;2022-10-31T09:32:03;17.20;99.90
19552;DHT22;9921;47.186;9.778;2022-10-31T09:34:30;17.30;99.90
19552;DHT22;9921;47.186;9.778;2022-10-31T09:36:56;17.60;99.90
19552;DHT22;9921;47.186;9.778;2022-10-31T09:39:23;18.00;99.90
19552;DHT22;9921;47.186;9.778;2022-10-31T09:42:02;19.10;99.90
19552;DHT22;9921;47.186;9.778;2022-10-31T09:44:39;20.70;99.90
19552;DHT22;9921;47.186;9.778;2022-10-31T09:47:13;21.50;99.90
19552;DHT22;9921;47.186;9.778;2022-10-31T09:49:55;22.70;99.90
19552;DHT22;9921;47.186;9.778;2022-10-31T09:52:28;23.80;99.90
19552;DHT22;9921;47.186;9.778;2022-10-31T09:54:58;24.90;99.90
19552;DHT22;9921;47.186;9.778;2022-10-31T09:57:28;26.10;99.00
19552;DHT22;9921;47.186;9.778;2022-10-31T09:59:56;27.20;95.60
19552;DHT22;9921;47.186;9.778;2022-10-31T10:02:31;28.10;91.70
19552;DHT22;9921;47.186;9.778;2022-10-31T10:05:03;28.70;88.70
19552;DHT22;9921;47.186;9.778;2022-10-31T10:07:38;29.20;85.40
19552;DHT22;9921;47.186;9.778;2022-10-31T10:10:14;29.60;82.40
19552;DHT22;9921;47.186;9.778;2022-10-31T10:12:59;30.20;81.50
19552;DHT22;9921;47.186;9.778;2022-10-31T10:15:43;30.80;80.00
19552;DHT22;9921;47.186;9.778;2022-10-31T10:18:24;31.30;80.80
19552;DHT22;9921;47.186;9.778;2022-10-31T10:21:03;30.40;76.80
19552;DHT22;9921;47.186;9.778;2022-10-31T10:23:43;30.30;75.40
19552;DHT22;9921;47.186;9.778;2022-10-31T10:26:17;30.30;73.70
19552;DHT22;9921;47.186;9.778;2022-10-31T10:28:46;30.20;75.40
19552;DHT22;9921;47.186;9.778;2022-10-31T10:31:15;30.70;75.30
19552;DHT22;9921;47.186;9.778;2022-10-31T10:33:54;31.10;73.00
19552;DHT22;9921;47.186;9.778;2022-10-31T10:36:26;31.90;74.20
19552;DHT22;9921;47.186;9.778;2022-10-31T10:38:59;31.90;72.60
19552;DHT22;9921;47.186;9.778;2022-10-31T10:41:30;30.80;72.40
19552;DHT22;9921;47.186;9.778;2022-10-31T10:43:57;30.70;76.20
19552;DHT22;9921;47.186;9.778;2022-10-31T10:46:28;31.20;71.00
19552;DHT22;9921;47.186;9.778;2022-10-31T10:49:19;31.10;69.00
19552;DHT22;9921;47.186;9.778;2022-10-31T10:51:51;30.60;71.00
19552;DHT22;9921;47.186;9.778;2022-10-31T10:54:45;30.30;70.40
19552;DHT22;9921;47.186;9.778;2022-10-31T10:57:29;28.60;77.50
19552;DHT22;9921;47.186;9.778;2022-10-31T11:00:00;27.50;85.20
19552;DHT22;9921;47.186;9.778;2022-10-31T11:02:32;26.50;85.20
19552;DHT22;9921;47.186;9.778;2022-10-31T11:05:01;25.70;90.70
19552;DHT22;9921;47.186;9.778;2022-10-31T11:07:38;25.00;89.00
19552;DHT22;9921;47.186;9.778;2022-10-31T11:10:10;24.40;90.00
19552;DHT22;9921;47.186;9.778;2022-10-31T11:12:41;23.90;91.80
19552;DHT22;9921;47.186;9.778;2022-10-31T11:15:23;23.40;92.60
19552;DHT22;9921;47.186;9.778;2022-10-31T11:17:52;22.80;93.30
19552;DHT22;9921;47.186;9.778;2022-10-31T11:20:28;22.40;93.60
19552;DHT22;9921;47.186;9.778;2022-10-31T11:23:17;22.00;94.70
19552;DHT22;9921;47.186;9.778;2022-10-31T11:25:52;21.60;94.40
19552;DHT22;9921;47.186;9.778;2022-10-31T11:28:20;21.30;95.30
19552;DHT22;9921;47.186;9.778;2022-10-31T11:30:50;21.20;94.90
19552;DHT22;9921;47.186;9.778;2022-10-31T11:33:20;20.80;97.30
19552;DHT22;9921;47.186;9.778;2022-10-31T11:35:49;20.70;98.90
19552;DHT22;9921;47.186;9.778;2022-10-31T11:38:19;20.30;99.60
19552;DHT22;9921;47.186;9.778;2022-10-31T11:40:54;20.20;99.90
19552;DHT22;9921;47.186;9.778;2022-10-31T11:43:22;19.90;99.90
19552;DHT22;9921;47.186;9.778;2022-10-31T11:45:50;19.80;99.90
19552;DHT22;9921;47.186;9.778;2022-10-31T11:48:19;19.70;99.90
19552;DHT22;9921;47.186;9.778;2022-10-31T11:50:53;19.60;99.90
19552;DHT22;9921;47.186;9.778;2022-10-31T11:53:26;19.50;99.90
19552;DHT22;9921;47.186;9.778;2022-10-31T11:56:04;19.30;99.90
19552;DHT22;9921;47.186;9.778;2022-10-31T11:58:32;19.20;99.90
19552;DHT22;9921;47.186;9.778;2022-10-31T12:00:59;19.20;99.90
19552;DHT22;9921;47.186;9.778;2022-10-31T12:03:48;19.10;99.90
19552;DHT22;9921;47.186;9.778;2022-10-31T12:06:22;19.00;99.90
19552;DHT22;9921;47.186;9.778;2022-10-31T12:08:50;19.00;99.90
19552;DHT22;9921;47.186;9.778;2022-10-31T12:11:33;18.80;99.90
19552;DHT22;9921;47.186;9.778;2022-10-31T12:14:10;18.70;99.90
19552;DHT22;9921;47.186;9.778;2022-10-31T12:16:44;18.70;99.90
19552;DHT22;9921;47.186;9.778;2022-10-31T12:19:17;18.60;99.90
19552;DHT22;9921;47.186;9.778;2022-10-31T12:22:01;18.50;99.90
19552;DHT22;9921;47.186;9.778;2022-10-31T12:24:38;18.50;99.90
19552;DHT22;9921;47.186;9.778;2022-10-31T12:27:19;18.30;99.90
19552;DHT22;9921;47.186;9.778;2022-10-31T12:29:59;18.30;99.90
19552;DHT22;9921;47.186;9.778;2022-10-31T12:32:36;18.30;99.90
19552;DHT22;9921;47.186;9.778;2022-10-31T12:35:33;18.40;99.90
19552;DHT22;9921;47.186;9.778;2022-10-31T12:38:21;18.50;99.90
19552;DHT22;9921;47.186;9.778;2022-10-31T12:41:09;18.20;99.90
19552;DHT22;9921;47.186;9.778;2022-10-31T12:43:45;18.10;99.90
19552;DHT22;9921;47.186;9.778;2022-10-31T12:46:20;18.10;99.90
19552;DHT22;9921;47.186;9.778;2022-10-31T12:49:10;18.10;99.90
19552;DHT22;9921;47.186;9.778;2022-10-31T12:51:45;18.10;99.90
19552;DHT22;9921;47.186;9.778;2022-10-31T12:54:34;18.10;99.90
19552;DHT22;9921;47.186;9.778;2022-10-31T12:57:13;18.10;99.90
19552;DHT22;9921;47.186;9.778;2022-10-31T12:59:46;18.00;99.90
19552;DHT22;9921;47.186;9.778;2022-10-31T13:02:18;18.00;99.90
19552;DHT22;9921;47.186;9.778;2022-10-31T13:04:50;18.00;99.90
19552;DHT22;9921;47.186;9.778;2022-10-31T13:07:23;17.90;99.90
19552;DHT22;9921;47.186;9.778;2022-10-31T13:09:56;17.90;99.90
19552;DHT22;9921;47.186;9.778;2022-10-31T13:12:27;17.80;99.90
19552;DHT22;9921;47.186;9.778;2022-10-31T13:14:57;17.80;99.90
19552;DHT22;9921;47.186;9.778;2022-10-31T13:17:29;17.80;99.90
19552;DHT22;9921;47.186;9.778;2022-10-31T13:20:11;17.70;99.90
19552;DHT22;9921;47.186;9.778;2022-10-31T13:22:43;17.70;99.90
19552;DHT22;9921;47.186;9.778;2022-10-31T13:25:15;17.80;99.90
19552;DHT22;9921;47.186;9.778;2022-10-31T13:27:47;17.80;99.90
19552;DHT22;9921;47.186;9.778;2022-10-31T13:30:17;17.90;99.90
19552;DHT22;9921;47.186;9.778;2022-10-31T13:32:49;18.00;99.90
19552;DHT22;9921;47.186;9.778;2022-10-31T13:35:23;18.10;99.90
19552;DHT22;9921;47.186;9.778;2022-10-31T13:37:58;18.10;99.90
19552;DHT22;9921;47.186;9.778;2022-10-31T13:40:36;18.30;99.90
19552;DHT22;9921;47.186;9.778;2022-10-31T13:43:10;18.60;99.90
19552;DHT22;9921;47.186;9.778;2022-10-31T13:45:48;18.90;99.90
19552;DHT22;9921;47.186;9.778;2022-10-31T13:48:34;19.00;99.90
19552;DHT22;9921;47.186;9.778;2022-10-31T13:51:03;19.10;99.90
19552;DHT22;9921;47.186;9.778;2022-10-31T13:53:43;19.50;99.90
19552;DHT22;9921;47.186;9.778;2022-10-31T13:56:21;20.30;99.90
19552;DHT22;9921;47.186;9.778;2022-10-31T13:59:16;21.00;99.90
19552;DHT22;9921;47.186;9.778;2022-10-31T14:01:47;21.70;99.90
19552;DHT22;9921;47.186;9.778;2022-10-31T14:04:16;22.40;99.90
19552;DHT22;9921;47.186;9.778;2022-10-31T14:06:50;23.00;99.90
19552;DHT22;9921;47.186;9.778;2022-10-31T14:09:22;23.60;99.90
19552;DHT22;9921;47.186;9.778;2022-10-31T14:11:51;24.00;99.90
19552;DHT22;9921;47.186;9.778;2022-10-31T14:14:19;24.20;99.90
19552;DHT22;9921;47.186;9.778;2022-10-31T14:16:54;24.50;99.90
19552;DHT22;9921;47.186;9.778;2022-10-31T14:19:22;24.70;99.90
19552;DHT22;9921;47.186;9.778;2022-10-31T14:21:50;24.60;99.90
19552;DHT22;9921;47.186;9.778;2022-10-31T14:24:34;23.90;99.90
19552;DHT22;9921;47.186;9.778;2022-10-31T14:29:46;22.20;99.90
19552;DHT22;9921;47.186;9.778;2022-10-31T14:32:21;21.50;99.90
19552;DHT22;9921;47.186;9.778;2022-10-31T14:34:53;20.90;99.90
19552;DHT22;9921;47.186;9.778;2022-10-31T14:38:08;20.30;99.90
19552;DHT22;9921;47.186;9.778;2022-10-31T14:40:47;19.80;99.90
19552;DHT22;9921;47.186;9.778;2022-10-31T14:43:35;19.40;99.90
19552;DHT22;9921;47.186;9.778;2022-10-31T14:46:10;19.00;99.90
19552;DHT22;9921;47.186;9.778;2022-10-31T14:48:58;18.80;99.90
19552;DHT22;9921;47.186;9.778;2022-10-31T14:51:33;18.30;99.90
19552;DHT22;9921;47.186;9.778;2022-10-31T14:54:01;18.00;99.90
19552;DHT22;9921;47.186;9.778;2022-10-31T14:56:30;17.80;99.90
19552;DHT22;9921;47.186;9.778;2022-10-31T14:59:01;17.70;99.90
19552;DHT22;9921;47.186;9.778;2022-10-31T15:01:31;17.50;99.90
19552;DHT22;9921;47.186;9.778;2022-10-31T15:04:04;17.30;99.90
19552;DHT22;9921;47.186;9.778;2022-10-31T15:06:37;17.20;99.90
19552;DHT22;9921;47.186;9.778;2022-10-31T15:09:20;16.90;99.90
19552;DHT22;9921;47.186;9.778;2022-10-31T15:11:47;16.80;99.90
19552;DHT22;9921;47.186;9.778;2022-10-31T15:14:22;16.70;99.90
19552;DHT22;9921;47.186;9.778;2022-10-31T15:16:50;16.80;99.90
19552;DHT22;9921;47.186;9.778;2022-10-31T15:19:21;16.80;99.90
19552;DHT22;9921;47.186;9.778;2022-10-31T15:21:51;16.70;99.90
19552;DHT22;9921;47.186;9.778;2022-10-31T15:24:19;16.50;99.90
19552;DHT22;9921;47.186;9.778;2022-10-31T15:26:48;16.40;99.90
19552;DHT22;9921;47.186;9.778;2022-10-31T15:29:18;16.20;99.90
19552;DHT22;9921;47.186;9.778;2022-10-31T15:31:51;16.10;99.90
19552;DHT22;9921;47.186;9.778;2022-10-31T15:34:24;16.10;99.90
19552;DHT22;9921;47.186;9.778;2022-10-31T15:36:52;16.00;99.90
19552;DHT22;9921;47.186;9.778;2022-10-31T15:39:19;16.10;99.90
19552;DHT22;9921;47.186;9.778;2022-10-31T15:41:49;16.00;99.90
19552;DHT22;9921;47.186;9.778;2022-10-31T15:44:21;16.00;99.90
19552;DHT22;9921;47.186;9.778;2022-10-31T15:46:55;15.90;99.90
19552;DHT22;9921;47.186;9.778;2022-10-31T15:49:35;15.90;99.90
19552;DHT22;9921;47.186;9.778;2022-10-31T15:52:09;15.80;99.90
19552;DHT22;9921;47.186;9.778;2022-10-31T15:54:40;15.60;99.90
19552;DHT22;9921;47.186;9.778;2022-10-31T15:57:10;15.50;99.90
19552;DHT22;9921;47.186;9.778;2022-10-31T15:59:42;15.20;99.90
19552;DHT22;9921;47.186;9.778;2022-10-31T16:02:13;15.10;99.90
19552;DHT22;9921;47.186;9.778;2022-10-31T16:04:49;15.10;99.90
19552;DHT22;9921;47.186;9.778;2022-10-31T16:07:18;15.10;99.90
19552;DHT22;9921;47.186;9.778;2022-10-31T16:09:50;15.00;99.90
19552;DHT22;9921;47.186;9.778;2022-10-31T16:12:17;15.00;99.90
19552;DHT22;9921;47.186;9.778;2022-10-31T16:14:46;14.90;99.90
19552;DHT22;9921;47.186;9.778;2022-10-31T16:17:14;14.80;99.90